Time;durP1;ratioP1;P1;durP2;ratioP2;P2;SDS_P1;SDS_P2;PMS_P1;PMS_P2;Temp;Humidity;BMP_temperature;BMP_pressure;BME280_temperature;BME280_humidity;BME280_pressure;Samples;Min_cycle;Max_cycle;Signal;HPM_P1;HPM_P2
2022/07/19 00:02:10;;;;;;;6.30;3.20;;;;;;;22.19;82.04;101717.56;5270488;28;20059;-70
2022/07/19 00:04:41;;;;;;;9.73;3.50;;;;;;;22.12;85.47;101714.78;5275600;28;20321;-71
2022/07/19 00:07:12;;;;;;;8.87;4.57;;;;;;;22.06;85.23;101721.69;5273682;28;20025;-70
2022/07/19 00:09:44;;;;;;;6.57;3.73;;;;;;;22.09;84.31;101720.50;5272593;28;20020;-70
2022/07/19 00:12:15;;;;;;;7.00;3.93;;;;;;;21.97;85.22;101709.47;5275154;28;20020;-70
2022/07/19 00:14:47;;;;;;;9.53;3.80;;;;;;;22.01;86.45;101701.91;5276570;28;20048;-70
2022/07/19 00:17:18;;;;;;;6.80;4.07;;;;;;;21.96;88.19;101699.78;5275427;28;20141;-70
2022/07/19 00:19:50;;;;;;;6.60;3.97;;;;;;;21.97;88.14;101709.47;5275411;28;20039;-70
2022/07/19 00:22:21;;;;;;;7.07;3.90;;;;;;;21.91;88.60;101702.19;5274575;28;20080;-70
2022/07/19 00:24:52;;;;;;;6.83;3.90;;;;;;;21.84;89.52;101711.94;5275560;28;20044;-70
2022/07/19 00:27:24;;;;;;;10.53;4.00;;;;;;;21.85;88.89;101710.91;5275314;28;20032;-70
2022/07/19 00:29:55;;;;;;;9.10;3.50;;;;;;;21.81;88.11;101702.47;5273418;28;20036;-70
2022/07/19 00:32:26;;;;;;;7.73;4.20;;;;;;;21.68;90.45;101691.59;5254501;28;20025;-70
2022/07/19 00:34:58;;;;;;;4.80;3.40;;;;;;;21.72;89.90;101697.41;5274956;28;20060;-70
2022/07/19 00:37:29;;;;;;;5.97;3.80;;;;;;;21.67;89.91;101703.28;5276011;28;20036;-70
2022/07/19 00:40:01;;;;;;;8.63;4.17;;;;;;;21.67;91.03;101702.44;5275190;28;20091;-70
2022/07/19 00:42:32;;;;;;;6.03;3.60;;;;;;;21.54;92.71;101695.91;5271656;28;20106;-71
2022/07/19 00:45:05;;;;;;;10.60;3.90;;;;;;;21.55;92.78;101694.06;5273363;28;20043;-70
2022/07/19 00:47:36;;;;;;;7.22;3.72;;;;;;;21.50;93.68;101689.28;5276549;28;20036;-70
2022/07/19 00:50:08;;;;;;;8.43;3.63;;;;;;;21.45;94.23;101696.19;5274410;28;20441;-70
2022/07/19 00:52:40;;;;;;;6.57;3.70;;;;;;;21.48;93.64;101691.31;5275149;28;20032;-70
2022/07/19 00:55:12;;;;;;;6.53;3.60;;;;;;;21.45;92.62;101689.00;5273571;28;20029;-70
2022/07/19 00:57:44;;;;;;;8.77;3.83;;;;;;;21.36;94.18;101690.91;5272301;28;20107;-70
2022/07/19 01:00:18;;;;;;;12.63;4.22;;;;;;;21.35;94.35;101688.41;5274678;28;20033;-71
2022/07/19 01:02:51;;;;;;;6.82;3.60;;;;;;;21.29;95.90;101689.09;5253694;28;20032;-71
2022/07/19 01:05:22;;;;;;;6.78;4.00;;;;;;;21.26;94.05;101682.31;5275294;28;20261;-71
2022/07/19 01:07:54;;;;;;;6.57;3.80;;;;;;;21.30;92.86;101688.13;5275214;28;20081;-71
2022/07/19 01:10:26;;;;;;;6.83;3.40;;;;;;;21.29;93.92;101700.63;5274155;28;20032;-71
2022/07/19 01:12:58;;;;;;;6.00;3.90;;;;;;;21.25;92.69;101690.47;5273804;28;20078;-71
2022/07/19 01:15:29;;;;;;;6.40;3.57;;;;;;;21.21;93.70;101691.84;5255593;28;20032;-71
2022/07/19 01:18:00;;;;;;;9.00;4.50;;;;;;;21.16;94.21;101686.22;5256515;28;20039;-71
2022/07/19 01:20:32;;;;;;;6.67;3.60;;;;;;;21.18;92.33;101694.88;5273097;28;20083;-71
2022/07/19 01:23:03;;;;;;;6.30;3.40;;;;;;;21.09;93.89;101691.44;5273238;28;20028;-71
2022/07/19 01:25:36;;;;;;;7.60;4.07;;;;;;;21.09;94.33;101683.44;5286731;28;20016;-71
2022/07/19 01:28:08;;;;;;;5.18;3.47;;;;;;;21.04;94.45;101684.00;5273249;28;20067;-71
2022/07/19 01:30:40;;;;;;;5.30;3.92;;;;;;;21.00;94.74;101685.34;5273684;28;20043;-71
2022/07/19 01:33:11;;;;;;;6.03;3.53;;;;;;;20.99;95.10;101694.34;5273637;28;20425;-71
2022/07/19 01:35:42;;;;;;;6.47;3.90;;;;;;;20.93;95.96;101694.22;5273773;28;20028;-71
2022/07/19 01:38:13;;;;;;;5.53;3.60;;;;;;;20.91;94.43;101694.44;5272457;28;20367;-71
2022/07/19 01:40:45;;;;;;;5.47;3.50;;;;;;;20.85;96.85;101685.28;5274082;28;20039;-71
2022/07/19 01:43:16;;;;;;;6.93;4.13;;;;;;;20.89;95.20;101693.75;5275041;28;20045;-71
2022/07/19 01:45:47;;;;;;;5.50;3.60;;;;;;;20.83;94.52;101689.94;5256270;28;20034;-71
2022/07/19 01:48:20;;;;;;;5.90;4.13;;;;;;;20.77;95.73;101684.53;5273059;28;20489;-71
2022/07/19 01:50:51;;;;;;;7.22;4.30;;;;;;;20.72;95.06;101682.41;5272751;28;20062;-71
2022/07/19 01:53:22;;;;;;;7.67;4.63;;;;;;;20.71;95.47;101686.03;5273482;28;20650;-71
2022/07/19 01:55:54;;;;;;;10.00;5.03;;;;;;;20.62;96.72;101693.25;5291683;28;20024;-71
2022/07/19 01:58:25;;;;;;;6.40;4.87;;;;;;;20.59;96.66;101682.97;5271627;28;20025;-71
2022/07/19 02:00:57;;;;;;;9.60;5.10;;;;;;;20.58;96.67;101688.47;5255650;28;20035;-71
2022/07/19 02:03:28;;;;;;;7.33;5.10;;;;;;;20.54;96.09;101690.66;5272618;28;20020;-71
2022/07/19 02:05:59;;;;;;;8.53;5.17;;;;;;;20.56;95.92;101683.31;5269963;28;20028;-71
2022/07/19 02:08:31;;;;;;;7.00;5.03;;;;;;;20.54;97.04;101690.66;5269208;28;20098;-71
2022/07/19 02:11:34;;;;;;;7.43;4.57;;;;;;;20.46;97.76;101674.69;5253889;28;20120;-71
2022/07/19 02:13:54;;;;;;;8.85;4.40;;;;;;;20.36;98.11;101677.56;5269754;28;20079;-71
2022/07/19 02:16:25;;;;;;;8.07;5.03;;;;;;;20.34;99.21;101668.09;5271178;28;20056;-71
2022/07/19 02:18:56;;;;;;;7.50;5.03;;;;;;;20.37;98.79;101681.88;5284966;28;20024;-71
2022/07/19 02:21:28;;;;;;;6.70;4.70;;;;;;;20.26;99.34;101679.59;5271353;28;20449;-71
2022/07/19 02:23:59;;;;;;;9.10;5.00;;;;;;;20.21;98.75;101673.16;5272048;28;20111;-71
2022/07/19 02:26:32;;;;;;;7.57;4.80;;;;;;;20.24;97.90;101663.00;5267441;28;20035;-71
2022/07/19 02:29:03;;;;;;;7.53;5.28;;;;;;;20.15;100.00;101674.66;5267988;28;20040;-71
2022/07/19 02:31:35;;;;;;;9.20;5.17;;;;;;;20.22;97.87;101666.81;5270920;28;20069;-71
2022/07/19 02:34:06;;;;;;;6.83;4.80;;;;;;;20.17;99.35;101664.69;5271829;28;20033;-71
2022/07/19 02:36:38;;;;;;;8.83;4.90;;;;;;;20.20;98.73;101663.53;5271138;28;20078;-70
2022/07/19 02:39:09;;;;;;;7.03;4.40;;;;;;;20.14;100.00;101655.22;5270870;28;20024;-71
2022/07/19 02:41:40;;;;;;;7.23;5.10;;;;;;;20.06;100.00;101662.41;5272116;28;20109;-71
2022/07/19 02:44:12;;;;;;;6.60;4.60;;;;;;;20.08;100.00;101669.22;5272568;28;20732;-71
2022/07/19 02:46:43;;;;;;;6.47;4.57;;;;;;;20.04;100.00;101662.59;5272353;28;20024;-71
2022/07/19 02:49:14;;;;;;;7.77;4.47;;;;;;;19.99;100.00;101658.78;5272672;28;20040;-71
2022/07/19 02:51:46;;;;;;;8.57;4.40;;;;;;;20.05;100.00;101666.06;5270889;28;20111;-71
2022/07/19 02:54:18;;;;;;;7.67;5.30;;;;;;;19.91;100.00;101655.13;5288599;28;20035;-71
2022/07/19 02:56:49;;;;;;;6.43;5.03;;;;;;;19.91;100.00;101663.13;5271243;28;20463;-71
2022/07/19 02:59:20;;;;;;;7.33;5.80;;;;;;;19.88;100.00;101655.47;5273213;28;20341;-71
2022/07/19 03:01:52;;;;;;;7.57;5.10;;;;;;;19.90;100.00;101655.31;5268224;28;20631;-71
2022/07/19 03:04:23;;;;;;;8.50;5.53;;;;;;;19.90;100.00;101656.16;5273221;28;20149;-70
2022/07/19 03:06:54;;;;;;;9.93;5.07;;;;;;;19.86;100.00;101654.84;5274363;28;20039;-71
2022/07/19 03:09:26;;;;;;;8.87;4.73;;;;;;;19.81;100.00;101654.53;5272184;28;20086;-71
2022/07/19 03:11:57;;;;;;;8.73;4.97;;;;;;;19.78;100.00;101646.06;5272100;28;20025;-71
2022/07/19 03:14:28;;;;;;;9.37;5.00;;;;;;;19.77;100.00;101650.53;5271632;28;20109;-71
2022/07/19 03:17:00;;;;;;;6.80;4.47;;;;;;;19.77;100.00;101647.03;5272027;28;20036;-71
2022/07/19 03:19:31;;;;;;;7.30;4.63;;;;;;;19.74;100.00;101642.09;5254477;28;20091;-71
2022/07/19 03:22:02;;;;;;;10.95;4.68;;;;;;;19.68;100.00;101633.78;5271116;28;20033;-71
2022/07/19 03:24:34;;;;;;;8.27;5.30;;;;;;;19.66;100.00;101633.13;5272825;28;20230;-71
2022/07/19 03:27:05;;;;;;;6.93;4.80;;;;;;;19.63;100.00;101633.47;5252862;28;20692;-71
2022/07/19 03:29:36;;;;;;;7.30;5.23;;;;;;;19.65;100.00;101631.44;5273335;28;20075;-71
2022/07/19 03:32:08;;;;;;;7.67;5.07;;;;;;;19.68;100.00;101636.44;5270133;28;20052;-71
2022/07/19 03:34:39;;;;;;;10.27;5.60;;;;;;;19.58;100.00;101632.28;5287803;28;20478;-73
2022/07/19 03:37:10;;;;;;;9.30;5.90;;;;;;;19.58;100.00;101632.28;5270876;28;20081;-71
2022/07/19 03:39:41;;;;;;;6.55;5.22;;;;;;;19.56;100.00;101637.78;5271915;28;20032;-71
2022/07/19 03:42:13;;;;;;;7.60;4.97;;;;;;;19.52;100.00;101636.44;5272509;28;20040;-71
2022/07/19 03:44:44;;;;;;;7.13;5.33;;;;;;;19.49;100.00;101644.75;5287395;28;20063;-71
2022/07/19 03:47:15;;;;;;;7.90;5.70;;;;;;;19.48;100.00;101642.28;5271363;28;20401;-70
2022/07/19 03:49:47;;;;;;;10.25;5.28;;;;;;;19.47;100.00;101628.13;5270399;28;20032;-70
2022/07/19 03:52:18;;;;;;;9.57;5.30;;;;;;;19.48;100.00;101629.00;5271821;28;20024;-70
2022/07/19 03:54:49;;;;;;;8.50;5.67;;;;;;;19.43;100.00;101630.34;5273309;28;20155;-72
2022/07/19 03:57:21;;;;;;;7.93;5.87;;;;;;;19.42;100.00;101636.63;5270221;28;20041;-72
2022/07/19 03:59:52;;;;;;;6.93;5.60;;;;;;;19.45;100.00;101638.13;5254912;28;20039;-71
2022/07/19 04:02:24;;;;;;;8.70;5.33;;;;;;;19.41;100.00;101644.78;5270300;28;20032;-75
2022/07/19 04:04:55;;;;;;;8.07;5.03;;;;;;;19.43;100.00;101635.66;5268281;28;20039;-71
2022/07/19 04:07:26;;;;;;;6.93;5.43;;;;;;;19.47;100.00;101641.41;5272446;28;20167;-71
2022/07/19 04:09:57;;;;;;;9.77;5.40;;;;;;;19.43;100.00;101637.44;5270701;28;20388;-74
2022/07/19 04:12:29;;;;;;;7.47;5.30;;;;;;;19.43;100.00;101637.44;5270226;28;20138;-73
2022/07/19 04:15:00;;;;;;;10.57;5.97;;;;;;;19.47;100.00;101643.25;5271227;28;20497;-72
2022/07/19 04:17:32;;;;;;;10.90;6.47;;;;;;;19.48;100.00;101635.13;5272318;28;20047;-74
2022/07/19 04:20:05;;;;;;;7.90;5.43;;;;;;;19.42;100.00;101631.31;5285443;28;20125;-71
2022/07/19 04:22:36;;;;;;;;;;;;;;;20.07;97.69;101629.47;5270078;28;20081;-73
2022/07/19 04:25:08;;;;;;;9.63;5.68;;;;;;;19.48;100.00;101642.28;5284079;28;19916;-72
2022/07/19 04:27:40;;;;;;;8.02;5.57;;;;;;;19.52;100.00;101638.28;5253041;28;20507;-71
2022/07/19 04:30:11;;;;;;;11.13;6.17;;;;;;;19.53;100.00;101638.09;5269421;28;20079;-71
2022/07/19 04:32:42;;;;;;;9.93;6.50;;;;;;;19.55;100.00;101635.28;5271074;28;20028;-77
2022/07/19 04:35:15;;;;;;;11.05;6.45;;;;;;;19.61;100.00;101634.59;5271021;28;20029;-71
2022/07/19 04:37:47;;;;;;;11.57;6.45;;;;;;;19.62;100.00;101634.47;5271749;28;20032;-73
2022/07/19 04:40:18;;;;;;;14.50;6.97;;;;;;;19.63;100.00;101637.97;5271934;28;20084;-71
2022/07/19 04:42:49;;;;;;;15.30;7.43;;;;;;;19.63;100.00;101633.47;5270943;28;20091;-71
2022/07/19 04:45:21;;;;;;;22.73;7.03;;;;;;;19.66;100.00;101637.59;5271671;28;20501;-74
2022/07/19 04:47:52;;;;;;;11.43;6.77;;;;;;;19.74;100.00;101644.75;5272763;28;20106;-75
2022/07/19 04:50:23;;;;;;;12.13;6.90;;;;;;;19.80;100.00;101646.69;5274582;28;20059;-72
2022/07/19 04:52:55;;;;;;;12.70;7.65;;;;;;;19.76;100.00;101635.56;5275767;28;20036;-75
2022/07/19 04:55:26;;;;;;;10.57;7.10;;;;;;;19.86;100.00;101643.38;5274402;28;20436;-71
2022/07/19 04:57:57;;;;;;;14.40;8.20;;;;;;;19.96;100.00;101646.63;5275737;28;20028;-74
2022/07/19 05:00:29;;;;;;;14.13;8.17;;;;;;;19.97;100.00;101643.00;5275488;28;20034;-72
2022/07/19 05:03:00;;;;;;;12.23;8.37;;;;;;;20.04;100.00;101636.00;5274605;28;20121;-72
2022/07/19 05:05:32;;;;;;;13.20;7.90;;;;;;;20.06;100.00;101638.47;5273567;28;20052;-75
2022/07/19 05:08:03;;;;;;;12.57;7.90;;;;;;;20.11;100.00;101634.28;5274751;28;20315;-72
2022/07/19 05:10:35;;;;;;;13.30;7.73;;;;;;;20.17;100.00;101630.94;5275547;28;20024;-73
2022/07/19 05:13:06;;;;;;;15.17;8.57;;;;;;;20.29;100.00;101634.03;5273465;28;20324;-73
2022/07/19 05:15:37;;;;;;;13.13;9.10;;;;;;;20.33;100.00;101635.31;5273359;28;20043;-71
2022/07/19 05:18:09;;;;;;;11.60;8.73;;;;;;;20.35;97.75;101630.66;5273902;28;20393;-71
2022/07/19 05:20:40;;;;;;;13.87;8.63;;;;;;;20.51;99.74;101634.28;5291181;28;20032;-74
2022/07/19 05:23:11;;;;;;;15.50;9.17;;;;;;;20.56;95.92;101637.22;5275331;28;20024;-72
2022/07/19 05:25:43;;;;;;;14.60;9.53;;;;;;;20.59;94.38;101632.38;5273440;28;20037;-72
2022/07/19 05:28:14;;;;;;;16.63;9.63;;;;;;;20.78;91.70;101633.75;5273140;28;20028;-73
2022/07/19 05:30:45;;;;;;;18.37;10.00;;;;;;;20.88;90.10;101631.66;5256704;28;20055;-73
2022/07/19 05:33:16;;;;;;;21.60;9.60;;;;;;;20.87;91.94;101631.84;5274493;28;20038;-73
2022/07/19 05:35:48;;;;;;;14.57;10.00;;;;;;;20.98;89.27;101650.06;5274171;28;20462;-72
2022/07/19 05:38:19;;;;;;;16.90;8.70;;;;;;;20.83;92.03;101639.34;5272941;28;20029;-75
2022/07/19 05:40:50;;;;;;;14.13;9.10;;;;;;;20.98;94.63;101655.38;5273886;28;20031;-72
2022/07/19 05:43:22;;;;;;;15.80;10.27;;;;;;;21.00;96.69;101655.22;5273927;28;20055;-72
2022/07/19 05:45:53;;;;;;;18.30;9.30;;;;;;;21.01;97.10;101652.38;5276894;28;20513;-73
2022/07/19 05:48:24;;;;;;;14.07;9.67;;;;;;;21.11;96.35;101654.81;5273051;28;20028;-72
2022/07/19 05:50:57;;;;;;;14.73;8.90;;;;;;;21.32;88.82;101644.25;5253421;28;20052;-74
2022/07/19 05:53:28;;;;;;;16.13;9.73;;;;;;;21.48;82.94;101646.00;5274264;28;20470;-72
2022/07/19 05:55:59;;;;;;;15.67;9.87;;;;;;;21.71;78.60;101643.25;5274757;28;20024;-73
2022/07/19 05:58:30;;;;;;;13.10;8.90;;;;;;;21.86;76.04;101644.06;5272330;28;20579;-77
2022/07/19 06:01:25;;;;;;;10.47;9.10;;;;;;;22.02;75.14;101643.03;5272598;28;20400;-74
2022/07/19 06:03:57;;;;;;;;;;;;;;;22.43;75.04;101647.88;5271869;28;20032;-74
2022/07/19 06:06:31;;;;;;;12.43;8.75;;;;;;;22.23;74.59;101644.13;5254677;28;19912;-77
2022/07/19 06:09:04;;;;;;;12.00;8.02;;;;;;;22.17;76.67;101645.72;5272519;28;20281;-73
2022/07/19 06:11:36;;;;;;;15.80;8.40;;;;;;;22.29;72.05;101644.22;5272503;28;20291;-73
2022/07/19 06:14:12;;;;;;;16.17;7.83;;;;;;;22.63;70.43;101649.91;5272436;28;20042;-72
2022/07/19 06:16:43;;;;;;;13.75;8.07;;;;;;;22.59;67.62;101644.13;5273176;28;20024;-72
2022/07/19 06:19:15;;;;;;;12.83;7.33;;;;;;;22.81;66.94;101643.09;5273760;28;20057;-76
2022/07/19 06:21:46;;;;;;;13.30;6.73;;;;;;;23.05;64.74;101652.59;5270859;28;20029;-71
2022/07/19 06:24:18;;;;;;;14.97;7.27;;;;;;;23.15;60.53;101649.59;5271863;28;20062;-72
2022/07/19 06:26:49;;;;;;;14.10;6.37;;;;;;;23.44;60.75;101648.56;5271004;28;20500;-71
2022/07/19 06:29:20;;;;;;;13.50;6.10;;;;;;;23.49;60.67;101651.50;5273328;28;20056;-73
2022/07/19 06:31:52;;;;;;;12.70;5.80;;;;;;;23.52;59.62;101650.25;5252971;28;20085;-71
2022/07/19 06:34:23;;;;;;;11.40;6.07;;;;;;;23.84;57.98;101648.84;5273739;28;20486;-72
2022/07/19 06:36:54;;;;;;;13.10;5.63;;;;;;;23.95;62.16;101647.47;5274075;28;20067;-71
2022/07/19 06:39:25;;;;;;;20.20;6.53;;;;;;;24.12;55.67;101647.94;5273413;28;20032;-72
2022/07/19 06:41:57;;;;;;;18.63;5.97;;;;;;;24.31;54.48;101647.16;5271311;28;20041;-72
2022/07/19 06:44:29;;;;;;;35.27;8.27;;;;;;;24.60;52.69;101653.25;5271427;28;20053;-71
2022/07/19 06:47:00;;;;;;;17.97;5.23;;;;;;;24.64;56.48;101643.78;5274856;28;20070;-71
2022/07/19 06:49:31;;;;;;;20.43;6.10;;;;;;;24.86;53.55;101653.28;5270284;28;20039;-71
2022/07/19 06:52:03;;;;;;;17.07;6.50;;;;;;;25.03;49.87;101647.53;5267967;28;20044;-72
2022/07/19 06:54:34;;;;;;;16.73;5.63;;;;;;;25.15;50.24;101638.66;5287900;28;20052;-72
2022/07/19 06:57:07;;;;;;;13.63;6.10;;;;;;;25.33;49.17;101638.03;5273036;28;21650;-72
2022/07/19 06:59:39;;;;;;;12.55;5.05;;;;;;;25.53;50.65;101642.53;5270574;28;20029;-72
2022/07/19 07:02:10;;;;;;;9.30;4.80;;;;;;;25.62;49.03;101642.13;5271319;28;20051;-70
2022/07/19 07:04:41;;;;;;;12.20;4.50;;;;;;;25.73;48.70;101640.66;5269836;28;20122;-69
2022/07/19 07:07:13;;;;;;;10.87;4.67;;;;;;;25.91;47.71;101650.72;5270700;28;20522;-70
2022/07/19 07:09:45;;;;;;;9.93;4.25;;;;;;;25.95;48.01;101647.41;5269017;28;20099;-69
2022/07/19 07:12:16;;;;;;;10.10;4.07;;;;;;;26.06;48.12;101645.09;5272109;28;20028;-70
2022/07/19 07:14:47;;;;;;;9.07;4.27;;;;;;;26.28;47.85;101641.06;5273463;28;20064;-70
2022/07/19 07:17:19;;;;;;;14.13;4.07;;;;;;;26.42;49.18;101639.13;5272170;28;20028;-69
2022/07/19 07:19:50;;;;;;;171.73;25.73;;;;;;;26.65;46.08;101638.59;5271976;28;20020;-70
2022/07/19 07:22:21;;;;;;;12.57;5.70;;;;;;;26.82;44.09;101634.34;5274229;28;20037;-70
2022/07/19 07:24:53;;;;;;;25.50;7.00;;;;;;;27.07;44.50;101631.63;5272075;28;20393;-70
2022/07/19 07:27:24;;;;;;;10.33;4.00;;;;;;;27.11;44.34;101634.75;5273060;28;20444;-70
2022/07/19 07:29:55;;;;;;;10.17;4.60;;;;;;;27.37;43.22;101634.47;5273197;28;20039;-70
2022/07/19 07:32:27;;;;;;;8.63;3.70;;;;;;;27.58;42.71;101633.25;5274146;28;20025;-71
2022/07/19 07:34:58;;;;;;;8.23;4.10;;;;;;;27.79;41.11;101631.16;5266527;28;20201;-71
2022/07/19 07:37:29;;;;;;;13.90;4.13;;;;;;;27.91;39.20;101631.22;5272083;28;20036;-71
2022/07/19 07:40:01;;;;;;;6.57;3.40;;;;;;;28.11;38.80;101635.31;5253220;28;20060;-71
2022/07/19 07:42:32;;;;;;;10.47;3.60;;;;;;;28.22;38.94;101624.81;5270689;28;20040;-71
2022/07/19 07:45:04;;;;;;;11.77;3.60;;;;;;;28.48;38.78;101629.03;5272501;28;20104;-69
2022/07/19 07:47:36;;;;;;;7.53;3.63;;;;;;;28.58;41.33;101629.28;5273419;28;20561;-70
2022/07/19 07:50:09;;;;;;;11.55;4.20;;;;;;;28.72;39.82;101629.94;5253910;28;20147;-70
2022/07/19 07:52:40;;;;;;;6.50;2.92;;;;;;;28.83;37.05;101629.94;5272702;28;20103;-72
2022/07/19 07:55:12;;;;;;;7.17;3.20;;;;;;;29.06;36.30;101621.06;5271728;28;20028;-70
2022/07/19 07:57:43;;;;;;;7.30;3.70;;;;;;;29.19;36.89;101620.00;5271962;28;20055;-69
2022/07/19 08:00:14;;;;;;;11.77;3.83;;;;;;;29.36;36.67;101612.03;5274511;28;20028;-68
2022/07/19 08:02:46;;;;;;;11.20;3.60;;;;;;;29.55;36.75;101613.50;5252415;28;20036;-69
2022/07/19 08:05:23;;;;;;;9.20;3.13;;;;;;;29.63;38.83;101609.66;5271426;28;20036;-70
2022/07/19 08:07:55;;;;;;;11.48;3.20;;;;;;;29.84;37.30;101613.56;5268667;28;20033;-69
2022/07/19 08:10:31;;;;;;;6.70;2.92;;;;;;;29.98;35.63;101606.84;5270352;28;20035;-69
2022/07/19 08:13:02;;;;;;;8.63;3.30;;;;;;;30.07;38.09;101607.25;5287968;28;20016;-69
2022/07/19 08:15:36;;;;;;;10.27;3.60;;;;;;;30.25;36.62;101609.78;5272558;28;20031;-71
2022/07/19 08:18:07;;;;;;;8.68;2.97;;;;;;;30.44;35.39;101605.00;5271309;28;20040;-72
2022/07/19 08:20:39;;;;;;;8.27;3.53;;;;;;;30.66;35.76;101604.28;5264491;28;20452;-71
2022/07/19 08:23:11;;;;;;;10.60;3.30;;;;;;;30.73;35.81;101607.63;5271196;28;20036;-71
2022/07/19 08:25:42;;;;;;;;;;;;;;;31.27;33.98;101603.31;5274024;28;20039;-70
2022/07/19 08:28:14;;;;;;;9.57;3.00;;;;;;;31.08;34.05;101601.97;5277220;28;19912;-70
2022/07/19 08:30:45;;;;;;;7.80;3.00;;;;;;;31.24;33.74;101606.53;5276678;28;20375;-71
2022/07/19 08:33:16;;;;;;;35.90;7.57;;;;;;;31.35;33.69;101599.38;5277233;28;20028;-70
2022/07/19 08:35:47;;;;;;;11.17;3.50;;;;;;;31.53;32.61;101606.41;5276805;28;20489;-70
2022/07/19 08:38:19;;;;;;;10.93;3.30;;;;;;;31.77;32.88;101598.81;5273950;28;20044;-70
2022/07/19 08:40:51;;;;;;;6.97;3.03;;;;;;;31.91;32.61;101602.00;5283302;28;20135;-70
2022/07/19 08:43:23;;;;;;;6.32;2.85;;;;;;;32.03;32.66;101599.13;5274060;28;20041;-71
2022/07/19 08:45:58;;;;;;;7.33;2.53;;;;;;;32.24;31.70;101598.28;5276774;28;20031;-70
2022/07/19 08:48:32;;;;;;;7.82;2.67;;;;;;;32.36;31.58;101598.09;5274218;28;20032;-70
2022/07/19 08:51:04;;;;;;;5.90;3.10;;;;;;;32.44;30.67;101590.34;5276032;28;20331;-71
2022/07/19 08:53:40;;;;;;;6.20;3.08;;;;;;;32.63;31.09;101596.19;5276593;28;20013;-71
2022/07/19 08:59:02;;;;;;;19.77;7.40;;;;;;;32.73;31.13;101591.91;5276466;28;20502;-70
2022/07/19 09:01:34;;;;;;;6.38;2.97;;;;;;;32.83;30.47;101597.41;5267953;28;20040;-70
2022/07/19 09:04:06;;;;;;;;;;;;;;;33.52;31.10;101589.16;5275125;28;20032;-71
2022/07/19 09:06:39;;;;;;;;;;;;;;;33.71;31.08;101591.38;5272985;28;19960;-71
2022/07/19 09:09:11;;;;;;;6.45;2.65;;;;;;;33.35;29.01;101589.31;5274679;28;19912;-70
2022/07/19 09:11:49;;;;;;;5.43;2.60;;;;;;;33.46;29.70;101590.22;5275779;28;20032;-71
2022/07/19 09:14:29;;;;;;;8.30;3.55;;;;;;;33.35;29.28;101586.63;5276557;28;20039;-70
2022/07/19 09:17:01;;;;;;;8.43;3.70;;;;;;;33.44;28.39;101581.47;5274860;28;20213;-71
2022/07/19 09:19:34;;;;;;;12.55;3.38;;;;;;;33.67;28.72;101583.75;5273861;28;20036;-71
2022/07/19 09:22:06;;;;;;;7.15;3.00;;;;;;;33.73;29.42;101581.06;5275904;28;20028;-70
2022/07/19 09:24:47;;;;;;;6.55;3.50;;;;;;;33.82;28.45;101580.28;5274292;28;20054;-70
2022/07/19 09:27:27;;;;;;;8.18;2.92;;;;;;;33.86;28.46;101575.94;5257357;28;20028;-70
2022/07/19 09:30:00;;;;;;;6.75;3.70;;;;;;;34.06;27.29;101577.09;5274829;28;20028;-71
2022/07/19 09:32:31;;;;;;;6.20;3.30;;;;;;;34.16;27.32;101579.00;5287909;28;20028;-71
2022/07/19 09:35:03;;;;;;;;;;;;;;;34.84;28.40;101574.09;5275544;28;20473;-71
2022/07/19 09:37:35;;;;;;;9.77;2.80;;;;;;;34.52;27.62;101577.16;5274288;28;19908;-71
2022/07/19 09:40:08;;;;;;;;;;;;;;;35.07;28.77;101576.25;5274668;28;20032;-71
2022/07/19 09:42:44;;;;;;;4.40;2.90;;;;;;;34.48;26.87;101576.84;5272569;28;19925;-72
2022/07/19 09:45:20;;;;;;;6.15;2.88;;;;;;;34.51;26.93;101578.22;5272432;28;20103;-71
2022/07/19 09:47:51;;;;;;;11.20;3.25;;;;;;;34.75;26.78;101573.03;5273460;28;20029;-71
2022/07/19 09:50:22;;;;;;;;;;;;;;;35.32;26.80;101567.16;5274122;28;20305;-71
2022/07/19 09:52:56;;;;;;;6.60;3.03;;;;;;;35.02;25.32;101568.09;5272928;28;19920;-71
2022/07/19 09:55:28;;;;;;;6.30;3.08;;;;;;;35.24;25.79;101565.03;5274628;28;20731;-71
2022/07/19 09:58:01;;;;;;;7.03;2.88;;;;;;;35.35;24.89;101565.81;5273188;28;20521;-76
2022/07/19 10:00:33;;;;;;;9.00;2.67;;;;;;;35.39;24.32;101561.44;5271565;28;20110;-71
2022/07/19 10:03:07;;;;;;;5.70;2.80;;;;;;;35.56;23.72;101561.09;5271063;28;20159;-74
2022/07/19 10:05:39;;;;;;;7.35;3.13;;;;;;;35.56;25.31;101559.16;5268657;28;20036;-75
2022/07/19 10:08:10;;;;;;;7.60;2.85;;;;;;;35.63;24.22;101561.59;5273901;28;20033;-72
2022/07/19 10:10:42;;;;;;;7.53;2.97;;;;;;;35.82;24.70;101556.31;5270426;28;20032;-73
2022/07/19 10:13:13;;;;;;;7.43;3.00;;;;;;;35.73;23.74;101555.28;5269626;28;20021;-76
2022/07/19 10:15:48;;;;;;;8.40;3.20;;;;;;;35.97;23.44;101552.66;5275212;28;20101;-76
2022/07/19 10:18:30;;;;;;;6.28;3.10;;;;;;;35.97;23.89;101556.19;5270827;28;20025;-73
2022/07/19 10:21:02;;;;;;;6.47;2.67;;;;;;;36.11;24.00;101540.03;5272876;28;20039;-72
2022/07/19 10:23:33;;;;;;;5.55;2.90;;;;;;;36.32;23.54;101550.78;5272228;28;20037;-75
2022/07/19 10:26:05;;;;;;;6.82;2.90;;;;;;;36.41;22.75;101549.06;5273067;28;20103;-72
2022/07/19 10:28:37;;;;;;;6.65;2.80;;;;;;;36.49;23.38;101552.00;5273941;28;20098;-73
2022/07/19 10:31:42;;;;;;;6.40;2.70;;;;;;;36.79;23.19;101541.88;5272887;28;20156;-72
2022/07/19 10:34:22;;;;;;;3.55;2.40;;;;;;;36.77;22.74;101542.16;5239042;28;20540;-77
2022/07/19 10:36:55;;;;;;;5.35;2.60;;;;;;;36.69;22.47;101531.88;5271224;28;20040;-74
2022/07/19 10:39:35;;;;;;;7.85;2.60;;;;;;;36.71;22.19;101537.03;5271543;28;20288;-73
2022/07/19 10:42:19;;;;;;;5.72;2.50;;;;;;;36.66;22.01;101534.38;5271360;28;20053;-74
2022/07/19 10:44:57;;;;;;;4.88;2.72;;;;;;;37.11;22.47;101533.06;5272222;28;20039;-74
2022/07/19 10:47:37;;;;;;;4.78;2.65;;;;;;;37.06;21.96;101521.41;5272348;28;20029;-73
2022/07/19 10:50:14;;;;;;;7.13;2.70;;;;;;;37.19;21.75;101526.13;5273177;28;20040;-74
2022/07/19 10:52:47;;;;;;;4.68;2.22;;;;;;;37.24;21.16;101526.88;5268564;28;20056;-74
2022/07/19 10:55:19;;;;;;;7.53;2.58;;;;;;;37.37;20.81;101522.59;5272556;28;20031;-74
2022/07/19 10:58:08;;;;;;;3.88;2.42;;;;;;;37.34;20.03;101523.19;5270906;28;20165;-74
2022/07/19 11:00:47;;;;;;;6.60;2.28;;;;;;;37.40;20.90;101522.03;5268954;28;20029;-74
2022/07/19 11:03:25;;;;;;;4.45;2.00;;;;;;;37.43;19.64;101512.44;5270313;28;20086;-74
2022/07/19 11:06:00;;;;;;;5.93;2.63;;;;;;;37.30;19.41;101511.22;5287199;28;20044;-74
2022/07/19 11:08:40;;;;;;;4.38;2.40;;;;;;;37.49;20.28;101505.78;5272892;28;20436;-74
2022/07/19 11:11:17;;;;;;;8.50;2.50;;;;;;;37.46;20.29;101499.00;5271539;28;20029;-74
2022/07/19 11:13:51;;;;;;;7.43;2.92;;;;;;;37.71;20.01;101495.06;5269051;28;20115;-74
2022/07/19 11:16:25;;;;;;;5.15;2.42;;;;;;;37.74;19.28;101488.19;5269979;28;20086;-74
2022/07/19 11:19:09;;;;;;;4.18;2.33;;;;;;;38.03;20.08;101498.13;5274741;28;20031;-69
2022/07/19 11:21:41;;;;;;;5.75;3.08;;;;;;;37.91;19.57;101480.28;5275612;28;20106;-70
2022/07/19 11:24:13;;;;;;;4.13;2.60;;;;;;;37.70;19.29;101482.50;5273299;28;20078;-70
2022/07/19 11:26:45;;;;;;;6.32;1.98;;;;;;;38.04;19.21;101473.25;5273931;28;20132;-70
2022/07/19 11:29:16;;;;;;;9.25;2.38;;;;;;;38.11;19.36;101472.81;5272166;28;20064;-71
2022/07/19 11:31:47;;;;;;;5.80;2.30;;;;;;;37.92;18.88;101476.44;5269804;28;20052;-71
2022/07/19 11:34:20;;;;;;;6.10;2.10;;;;;;;37.97;19.31;101470.06;5274088;28;20632;-71
2022/07/19 11:36:58;;;;;;;4.10;2.15;;;;;;;38.40;19.70;101464.38;5273058;28;20454;-71
2022/07/19 11:39:49;;;;;;;5.68;1.98;;;;;;;38.71;18.91;101467.34;5273404;28;20032;-71
2022/07/19 11:42:53;;;;;;;3.97;1.70;;;;;;;39.07;19.25;101469.38;5269945;28;20041;-71
2022/07/19 11:45:26;;;;;;;7.10;2.30;;;;;;;38.59;19.14;101469.78;5217231;28;20076;-71
2022/07/19 11:47:57;;;;;;;4.15;1.75;;;;;;;38.73;17.72;101470.59;5254872;28;20478;-71
2022/07/19 11:50:29;;;;;;;4.07;1.90;;;;;;;38.93;18.73;101458.41;5272612;28;20054;-71